Menalon — SXCH — position and weather

sailwx.info

Track history (hours):
 
Tides and Currents Weather Stations Pressure Air Temp Water Temp Dewpoint Dewpoint Depression Visibility Wind Speed Wind Dir Waves Ship Positions

Menalon

Last reported at 2015-Jul-02 15:13 UTC. Time now 2015-Jul-04 05:06 UTC.
Position N 37°23' E 023°37'.

; draft 4.2 m.

Type: Ship (hazmat cat C). MMSI: 239741000.

Date/timePositionNaut miles runAvg speedWind from/ knotsBaromVisibWave heightAir tempDewpointWater temp
2015-Jul-02 15:13N 37°23' E 023°37'6 8.6
2015-Jul-02 14:33N 37°29' E 023°35'9 8.6
2015-Jul-02 13:31N 37°37' E 023°30'8 8.4
2015-Jul-02 12:33N 37°40' E 023°20'9 8.4
2015-Jul-02 11:28N 37°47' E 023°14'9 0.3
2015-Jul-01 05:33N 37°54' E 023°07'10 8.9
2015-Jul-01 04:26N 37°52' E 023°20'8 9.1
2015-Jul-01 03:33N 37°51' E 023°30'1 0.9
2015-Jul-01 02:33N 37°51' E 023°31'0 0.0
2015-Jul-01 01:33N 37°51' E 023°31'0 0.1
2015-Jul-01 00:33N 37°51' E 023°31'0 0.1
2015-Jun-30 23:33N 37°51' E 023°31'0 0.0
2015-Jun-30 22:33N 37°51' E 023°31'0 0.0
2015-Jun-30 21:33N 37°51' E 023°31'0 0.1
2015-Jun-30 20:33N 37°50' E 023°31'7 7.5
2015-Jun-30 19:33N 37°57' E 023°35'0 0.2
2015-Jun-30 18:33N 37°57' E 023°35'3 3.0
2015-Jun-30 17:33N 37°55' E 023°34'4 4.1
2015-Jun-30 16:33N 37°52' E 023°30'0 0.0
2015-Jun-30 15:33N 37°52' E 023°30'0 0.1
2015-Jun-30 14:33N 37°52' E 023°30'0 0.1
2015-Jun-30 13:33N 37°52' E 023°30'3 2.8
2015-Jun-30 12:33N 37°52' E 023°27'9 8.9
2015-Jun-30 11:32N 37°53' E 023°15'8 0.9
2015-Jun-30 03:03N 37°55' E 023°05'1 0.1
2015-Jun-29 13:22N 37°55' E 023°04'8 8.0
2015-Jun-29 12:19N 37°53' E 023°15'7 9.0
2015-Jun-29 11:33N 37°52' E 023°23'9 8.6
2015-Jun-29 10:33N 37°54' E 023°34'0 0.2
2015-Jun-29 09:33N 37°54' E 023°34'0 0.0
2015-Jun-29 08:33N 37°54' E 023°34'0 0.0
2015-Jun-29 07:33N 37°54' E 023°34'0 0.0
2015-Jun-29 06:33N 37°54' E 023°34'0 0.0
2015-Jun-29 05:33N 37°54' E 023°34'5 5.0
2015-Jun-29 04:33N 37°59' E 023°33'3 2.6
2015-Jun-29 03:33N 38°02' E 023°32'0 0.0
2015-Jun-29 02:33N 38°02' E 023°32'0 0.0
2015-Jun-29 01:24N 38°02' E 023°32'0 0.0
2015-Jun-29 00:33N 38°02' E 023°32'0 0.0
2015-Jun-28 23:33N 38°02' E 023°32'0 0.0
2015-Jun-28 22:23N 38°02' E 023°32'0 0.0
2015-Jun-28 21:33N 38°02' E 023°32'0 0.0
2015-Jun-28 20:33N 38°02' E 023°32'0 0.0
2015-Jun-28 19:33N 38°02' E 023°32'0 0.0
2015-Jun-28 18:33N 38°02' E 023°32'1 1.3
2015-Jun-28 17:33N 38°00' E 023°32'7 7.2
2015-Jun-28 16:33N 37°53' E 023°33'3 2.8
2015-Jun-28 15:33N 37°51' E 023°31'0 0.1
2015-Jun-28 14:33N 37°51' E 023°31'0 0.0
2015-Jun-28 13:33N 37°51' E 023°31'0 0.0
2015-Jun-28 12:33N 37°51' E 023°31'0 0.1
2015-Jun-28 11:33N 37°51' E 023°31'3 3.3
2015-Jun-28 10:33N 37°53' E 023°34'4 4.4
2015-Jun-28 09:33N 37°57' E 023°36'0 0.0
2015-Jun-28 08:33N 37°57' E 023°36'0 0.0
2015-Jun-28 07:33N 37°57' E 023°36'0 0.3
2015-Jun-28 06:33N 37°57' E 023°36'5 5.4
2015-Jun-28 05:33N 38°02' E 023°32'0 0.0
2015-Jun-28 04:33N 38°01' E 023°32'0 0.0
2015-Jun-28 03:33N 38°01' E 023°32'0 0.0
2015-Jun-28 02:33N 38°01' E 023°32'0 0.0
2015-Jun-28 01:31N 38°01' E 023°32'0 0.0
2015-Jun-28 00:32N 38°01' E 023°32'0 0.0
2015-Jun-27 23:33N 38°01' E 023°32'0 0.0
2015-Jun-27 22:33N 38°01' E 023°32'0 0.0
2015-Jun-27 21:33N 38°01' E 023°32'0 0.0
2015-Jun-27 20:33N 38°01' E 023°32'0 0.0
2015-Jun-27 19:33N 38°01' E 023°32'0 0.0
2015-Jun-27 18:29N 38°01' E 023°32'0 0.0
2015-Jun-27 17:33N 38°01' E 023°32'0 0.0
2015-Jun-27 16:33N 38°01' E 023°32'0 0.0
2015-Jun-27 15:33N 38°01' E 023°32'0 0.0
2015-Jun-27 14:33N 38°01' E 023°32'0 0.0
2015-Jun-27 13:33N 38°01' E 023°32'0 0.0
2015-Jun-27 12:33N 38°01' E 023°32'0 0.0
2015-Jun-27 11:33N 38°01' E 023°32'0 0.0
2015-Jun-27 10:33N 38°01' E 023°32'0 0.0
2015-Jun-27 09:33N 38°01' E 023°32'0 0.0
2015-Jun-27 08:33N 38°01' E 023°32'0 0.0
2015-Jun-27 07:33N 38°01' E 023°32'0 0.0
2015-Jun-27 06:33N 38°01' E 023°32'0 0.0
2015-Jun-27 05:33N 38°01' E 023°32'0 0.0
2015-Jun-27 04:32N 38°01' E 023°32'0 0.0
2015-Jun-27 03:30N 38°01' E 023°32'0 0.0
2015-Jun-27 02:33N 38°01' E 023°32'0 0.0
2015-Jun-27 01:32N 38°01' E 023°32'0 0.0
2015-Jun-27 00:33N 38°01' E 023°32'0 0.0
2015-Jun-26 23:33N 38°01' E 023°32'0 0.0
2015-Jun-26 22:33N 38°01' E 023°32'0 0.1
2015-Jun-26 21:33N 38°02' E 023°32'5 4.8
2015-Jun-26 20:33N 37°60' E 023°26'7 7.3
2015-Jun-26 19:33N 37°56' E 023°18'10 0.8
2015-Jun-26 07:32N 37°54' E 023°06'2 2.1
2015-Jun-26 06:33N 37°55' E 023°09'18 8.9
2015-Jun-26 04:31N 38°01' E 023°30'2 0.1
2015-Jun-25 12:33N 38°02' E 023°32'0 0.0
2015-Jun-25 11:33N 38°02' E 023°32'0 0.1
2015-Jun-25 10:33N 38°02' E 023°32'0 0.0
2015-Jun-25 09:33N 38°02' E 023°32'0 0.0
2015-Jun-25 08:23N 38°02' E 023°32'0 0.0
2015-Jun-25 07:31N 38°02' E 023°32'0 0.0
2015-Jun-25 06:32N 38°02' E 023°32'4 3.8
2015-Jun-25 05:33N 37°58' E 023°33'8 8.2
2015-Jun-25 04:33N 37°51' E 023°38'1010.0
2015-Jun-25 03:33N 37°42' E 023°44'1010.3
2015-Jun-25 02:33N 37°33' E 023°49'1010.2
2015-Jun-25 01:32N 37°23' E 023°53'3210.1
2015-Jun-24 22:22N 36°53' E 024°08'1010.3
2015-Jun-24 21:22N 36°44' E 024°13'3910.0
2015-Jun-24 17:29N 36°19' E 024°50'1010.7
2015-Jun-24 16:32N 36°12' E 024°59'1010.4
2015-Jun-24 15:33N 36°05' E 025°09'1010.0
2015-Jun-24 14:33N 35°59' E 025°19'10 9.7
2015-Jun-24 13:31N 35°54' E 025°29'  
Track history (hours):
 
Tides and Currents Weather Stations Pressure Air Temp Water Temp Dewpoint Dewpoint Depression Visibility Wind Speed Wind Dir Waves Ship Positions

Menalon

Last reported at 2015-Jul-02 15:13 UTC. Time now 2015-Jul-04 05:06 UTC.
Position N 37°23' E 023°37'.

; draft 4.2 m.

Type: Ship (hazmat cat C). MMSI: 239741000.

Date/timePositionNaut miles runAvg speedWind from/ knotsBaromVisibWave heightAir tempDewpointWater temp
2015-Jul-02 15:13N 37°23' E 023°37'6 8.6
2015-Jul-02 14:33N 37°29' E 023°35'9 8.6
2015-Jul-02 13:31N 37°37' E 023°30'8 8.4
2015-Jul-02 12:33N 37°40' E 023°20'9 8.4
2015-Jul-02 11:28N 37°47' E 023°14'9 0.3
2015-Jul-01 05:33N 37°54' E 023°07'10 8.9
2015-Jul-01 04:26N 37°52' E 023°20'8 9.1
2015-Jul-01 03:33N 37°51' E 023°30'1 0.9
2015-Jul-01 02:33N 37°51' E 023°31'0 0.0
2015-Jul-01 01:33N 37°51' E 023°31'0 0.1
2015-Jul-01 00:33N 37°51' E 023°31'0 0.1
2015-Jun-30 23:33N 37°51' E 023°31'0 0.0
2015-Jun-30 22:33N 37°51' E 023°31'0 0.0
2015-Jun-30 21:33N 37°51' E 023°31'0 0.1
2015-Jun-30 20:33N 37°50' E 023°31'7 7.5
2015-Jun-30 19:33N 37°57' E 023°35'0 0.2
2015-Jun-30 18:33N 37°57' E 023°35'3 3.0
2015-Jun-30 17:33N 37°55' E 023°34'4 4.1
2015-Jun-30 16:33N 37°52' E 023°30'0 0.0
2015-Jun-30 15:33N 37°52' E 023°30'0 0.1
2015-Jun-30 14:33N 37°52' E 023°30'0 0.1
2015-Jun-30 13:33N 37°52' E 023°30'3 2.8
2015-Jun-30 12:33N 37°52' E 023°27'9 8.9
2015-Jun-30 11:32N 37°53' E 023°15'8 0.9
2015-Jun-30 03:03N 37°55' E 023°05'1 0.1
2015-Jun-29 13:22N 37°55' E 023°04'8 8.0
2015-Jun-29 12:19N 37°53' E 023°15'7 9.0
2015-Jun-29 11:33N 37°52' E 023°23'9 8.6
2015-Jun-29 10:33N 37°54' E 023°34'0 0.2
2015-Jun-29 09:33N 37°54' E 023°34'0 0.0
2015-Jun-29 08:33N 37°54' E 023°34'0 0.0
2015-Jun-29 07:33N 37°54' E 023°34'0 0.0
2015-Jun-29 06:33N 37°54' E 023°34'0 0.0
2015-Jun-29 05:33N 37°54' E 023°34'5 5.0
2015-Jun-29 04:33N 37°59' E 023°33'3 2.6
2015-Jun-29 03:33N 38°02' E 023°32'0 0.0
2015-Jun-29 02:33N 38°02' E 023°32'0 0.0
2015-Jun-29 01:24N 38°02' E 023°32'0 0.0
2015-Jun-29 00:33N 38°02' E 023°32'0 0.0
2015-Jun-28 23:33N 38°02' E 023°32'0 0.0
2015-Jun-28 22:23N 38°02' E 023°32'0 0.0
2015-Jun-28 21:33N 38°02' E 023°32'0 0.0
2015-Jun-28 20:33N 38°02' E 023°32'0 0.0
2015-Jun-28 19:33N 38°02' E 023°32'0 0.0
2015-Jun-28 18:33N 38°02' E 023°32'1 1.3
2015-Jun-28 17:33N 38°00' E 023°32'7 7.2
2015-Jun-28 16:33N 37°53' E 023°33'3 2.8
2015-Jun-28 15:33N 37°51' E 023°31'0 0.1
2015-Jun-28 14:33N 37°51' E 023°31'0 0.0
2015-Jun-28 13:33N 37°51' E 023°31'0 0.0
2015-Jun-28 12:33N 37°51' E 023°31'0 0.1
2015-Jun-28 11:33N 37°51' E 023°31'3 3.3
2015-Jun-28 10:33N 37°53' E 023°34'4 4.4
2015-Jun-28 09:33N 37°57' E 023°36'0 0.0
2015-Jun-28 08:33N 37°57' E 023°36'0 0.0
2015-Jun-28 07:33N 37°57' E 023°36'0 0.3
2015-Jun-28 06:33N 37°57' E 023°36'5 5.4
2015-Jun-28 05:33N 38°02' E 023°32'0 0.0
2015-Jun-28 04:33N 38°01' E 023°32'0 0.0
2015-Jun-28 03:33N 38°01' E 023°32'0 0.0
2015-Jun-28 02:33N 38°01' E 023°32'0 0.0
2015-Jun-28 01:31N 38°01' E 023°32'0 0.0
2015-Jun-28 00:32N 38°01' E 023°32'0 0.0
2015-Jun-27 23:33N 38°01' E 023°32'0 0.0
2015-Jun-27 22:33N 38°01' E 023°32'0 0.0
2015-Jun-27 21:33N 38°01' E 023°32'0 0.0
2015-Jun-27 20:33N 38°01' E 023°32'0 0.0
2015-Jun-27 19:33N 38°01' E 023°32'0 0.0
2015-Jun-27 18:29N 38°01' E 023°32'0 0.0
2015-Jun-27 17:33N 38°01' E 023°32'0 0.0
2015-Jun-27 16:33N 38°01' E 023°32'0 0.0
2015-Jun-27 15:33N 38°01' E 023°32'0 0.0
2015-Jun-27 14:33N 38°01' E 023°32'0 0.0
2015-Jun-27 13:33N 38°01' E 023°32'0 0.0
2015-Jun-27 12:33N 38°01' E 023°32'0 0.0
2015-Jun-27 11:33N 38°01' E 023°32'0 0.0
2015-Jun-27 10:33N 38°01' E 023°32'0 0.0
2015-Jun-27 09:33N 38°01' E 023°32'0 0.0
2015-Jun-27 08:33N 38°01' E 023°32'0 0.0
2015-Jun-27 07:33N 38°01' E 023°32'0 0.0
2015-Jun-27 06:33N 38°01' E 023°32'0 0.0
2015-Jun-27 05:33N 38°01' E 023°32'0 0.0
2015-Jun-27 04:32N 38°01' E 023°32'0 0.0
2015-Jun-27 03:30N 38°01' E 023°32'0 0.0
2015-Jun-27 02:33N 38°01' E 023°32'0 0.0
2015-Jun-27 01:32N 38°01' E 023°32'0 0.0
2015-Jun-27 00:33N 38°01' E 023°32'0 0.0
2015-Jun-26 23:33N 38°01' E 023°32'0 0.0
2015-Jun-26 22:33N 38°01' E 023°32'0 0.1
2015-Jun-26 21:33N 38°02' E 023°32'5 4.8
2015-Jun-26 20:33N 37°60' E 023°26'7 7.3
2015-Jun-26 19:33N 37°56' E 023°18'10 0.8
2015-Jun-26 07:32N 37°54' E 023°06'2 2.1
2015-Jun-26 06:33N 37°55' E 023°09'18 8.9
2015-Jun-26 04:31N 38°01' E 023°30'2 0.1
2015-Jun-25 12:33N 38°02' E 023°32'0 0.0
2015-Jun-25 11:33N 38°02' E 023°32'0 0.1
2015-Jun-25 10:33N 38°02' E 023°32'0 0.0
2015-Jun-25 09:33N 38°02' E 023°32'0 0.0
2015-Jun-25 08:23N 38°02' E 023°32'0 0.0
2015-Jun-25 07:31N 38°02' E 023°32'0 0.0
2015-Jun-25 06:32N 38°02' E 023°32'4 3.8
2015-Jun-25 05:33N 37°58' E 023°33'8 8.2
2015-Jun-25 04:33N 37°51' E 023°38'1010.0
2015-Jun-25 03:33N 37°42' E 023°44'1010.3
2015-Jun-25 02:33N 37°33' E 023°49'1010.2
2015-Jun-25 01:32N 37°23' E 023°53'3210.1
2015-Jun-24 22:22N 36°53' E 024°08'1010.3
2015-Jun-24 21:22N 36°44' E 024°13'3910.0
2015-Jun-24 17:29N 36°19' E 024°50'1010.7
2015-Jun-24 16:32N 36°12' E 024°59'1010.4
2015-Jun-24 15:33N 36°05' E 025°09'1010.0
2015-Jun-24 14:33N 35°59' E 025°19'10 9.7
2015-Jun-24 13:31N 35°54' E 025°29'  

Dump ship's entire track history